sensor_id;sensor_type;location;lat;lon;timestamp;pressure;altitude;pressure_sealevel;temperature;humidity
59272;BME280;45043;51.068;7.026;2023-09-19T00:02:23;99774.53;;;13.13;63.23
59272;BME280;45043;51.068;7.026;2023-09-19T00:05:24;99777.41;;;13.12;63.25
59272;BME280;45043;51.068;7.026;2023-09-19T00:08:28;99780.88;;;13.12;63.33
59272;BME280;45043;51.068;7.026;2023-09-19T00:11:29;99771.28;;;13.11;63.48
59272;BME280;45043;51.068;7.026;2023-09-19T00:14:32;99780.31;;;13.10;63.38
59272;BME280;45043;51.068;7.026;2023-09-19T00:17:36;99799.00;;;13.10;63.29
59272;BME280;45043;51.068;7.026;2023-09-19T00:20:38;99801.31;;;13.07;63.11
59272;BME280;45043;51.068;7.026;2023-09-19T00:23:39;99799.44;;;13.07;63.33
59272;BME280;45043;51.068;7.026;2023-09-19T00:26:43;99801.31;;;13.07;63.54
59272;BME280;45043;51.068;7.026;2023-09-19T00:29:44;99800.50;;;13.06;63.42
59272;BME280;45043;51.068;7.026;2023-09-19T00:32:47;99800.69;;;13.05;63.39
59272;BME280;45043;51.068;7.026;2023-09-19T00:35:49;99798.03;;;13.05;63.46
59272;BME280;45043;51.068;7.026;2023-09-19T00:38:50;99799.91;;;13.04;63.82
59272;BME280;45043;51.068;7.026;2023-09-19T00:41:52;99805.91;;;13.00;63.57
59272;BME280;45043;51.068;7.026;2023-09-19T00:44:53;99805.13;;;12.99;63.61
59272;BME280;45043;51.068;7.026;2023-09-19T00:47:54;99808.78;;;12.98;63.78
59272;BME280;45043;51.068;7.026;2023-09-19T00:50:57;99810.66;;;12.98;63.68
59272;BME280;45043;51.068;7.026;2023-09-19T00:54:02;99814.72;;;13.00;63.55
59272;BME280;45043;51.068;7.026;2023-09-19T00:57:03;99816.94;;;13.03;63.54
59272;BME280;45043;51.068;7.026;2023-09-19T01:00:06;99813.69;;;13.01;63.58
59272;BME280;45043;51.068;7.026;2023-09-19T01:03:09;99824.34;;;13.01;63.60
59272;BME280;45043;51.068;7.026;2023-09-19T01:06:10;99825.84;;;12.97;63.43
59272;BME280;45043;51.068;7.026;2023-09-19T01:09:13;99821.56;;;12.96;63.50
59272;BME280;45043;51.068;7.026;2023-09-19T01:12:19;99818.28;;;12.94;63.55
59272;BME280;45043;51.068;7.026;2023-09-19T01:18:59;99833.38;;;13.00;63.30
59272;BME280;45043;51.068;7.026;2023-09-19T01:22:26;99832.22;;;12.96;63.41
59272;BME280;45043;51.068;7.026;2023-09-19T01:32:04;99842.28;;;12.94;63.25
59272;BME280;45043;51.068;7.026;2023-09-19T01:35:07;99840.66;;;12.93;63.06
59272;BME280;45043;51.068;7.026;2023-09-19T01:38:13;99844.59;;;12.90;62.90
59272;BME280;45043;51.068;7.026;2023-09-19T01:41:26;99845.44;;;12.91;63.02
59272;BME280;45043;51.068;7.026;2023-09-19T01:44:36;99858.97;;;12.89;62.99
59272;BME280;45043;51.068;7.026;2023-09-19T01:48:05;99858.63;;;12.86;63.05
59272;BME280;45043;51.068;7.026;2023-09-19T01:51:20;99855.38;;;12.84;62.87
59272;BME280;45043;51.068;7.026;2023-09-19T01:54:41;99854.22;;;12.80;63.06
59272;BME280;45043;51.068;7.026;2023-09-19T02:01:08;99869.84;;;12.76;62.90
59272;BME280;45043;51.068;7.026;2023-09-19T02:04:11;99874.31;;;12.76;63.03
59272;BME280;45043;51.068;7.026;2023-09-19T02:07:12;99879.25;;;12.72;63.01
59272;BME280;45043;51.068;7.026;2023-09-19T02:10:17;99878.44;;;12.72;62.93
59272;BME280;45043;51.068;7.026;2023-09-19T02:13:19;99876.84;;;12.71;62.85
59272;BME280;45043;51.068;7.026;2023-09-19T02:16:20;99876.72;;;12.65;62.65
59272;BME280;45043;51.068;7.026;2023-09-19T02:19:21;99869.97;;;12.63;62.30
59272;BME280;45043;51.068;7.026;2023-09-19T02:22:23;99900.97;;;12.57;62.02
59272;BME280;45043;51.068;7.026;2023-09-19T02:25:25;99887.66;;;12.57;61.50
59272;BME280;45043;51.068;7.026;2023-09-19T02:28:27;99885.22;;;12.56;61.54
59272;BME280;45043;51.068;7.026;2023-09-19T02:31:32;99880.56;;;12.51;61.12
59272;BME280;45043;51.068;7.026;2023-09-19T02:34:33;99888.56;;;12.51;60.79
59272;BME280;45043;51.068;7.026;2023-09-19T02:37:36;99894.34;;;12.48;60.63
59272;BME280;45043;51.068;7.026;2023-09-19T02:40:38;99901.28;;;12.49;60.49
59272;BME280;45043;51.068;7.026;2023-09-19T02:43:41;99895.13;;;12.49;60.27
59272;BME280;45043;51.068;7.026;2023-09-19T02:46:44;99900.09;;;12.45;59.92
59272;BME280;45043;51.068;7.026;2023-09-19T02:49:45;99904.25;;;12.41;59.92
59272;BME280;45043;51.068;7.026;2023-09-19T02:52:46;99901.44;;;12.36;59.67
59272;BME280;45043;51.068;7.026;2023-09-19T02:55:50;99897.75;;;12.37;59.67
59272;BME280;45043;51.068;7.026;2023-09-19T02:58:53;99898.31;;;12.39;59.79
59272;BME280;45043;51.068;7.026;2023-09-19T03:01:56;99899.22;;;12.33;59.53
59272;BME280;45043;51.068;7.026;2023-09-19T03:04:57;99907.22;;;12.33;59.76
59272;BME280;45043;51.068;7.026;2023-09-19T03:08:01;99923.63;;;12.30;59.69
59272;BME280;45043;51.068;7.026;2023-09-19T03:11:06;99913.84;;;12.24;59.75
59272;BME280;45043;51.068;7.026;2023-09-19T03:14:11;99943.59;;;12.21;59.51
59272;BME280;45043;51.068;7.026;2023-09-19T03:17:13;99929.09;;;12.16;59.48
59272;BME280;45043;51.068;7.026;2023-09-19T03:20:15;99932.22;;;12.13;59.36
59272;BME280;45043;51.068;7.026;2023-09-19T03:23:18;99925.84;;;12.14;59.38
59272;BME280;45043;51.068;7.026;2023-09-19T03:26:19;99925.84;;;12.14;59.41
59272;BME280;45043;51.068;7.026;2023-09-19T03:29:21;99945.53;;;12.13;59.20
59272;BME280;45043;51.068;7.026;2023-09-19T03:32:22;99933.22;;;12.12;58.99
59272;BME280;45043;51.068;7.026;2023-09-19T03:35:23;99931.16;;;12.14;59.31
59272;BME280;45043;51.068;7.026;2023-09-19T03:38:27;99928.72;;;12.13;59.53
59272;BME280;45043;51.068;7.026;2023-09-19T03:41:29;99929.97;;;12.10;59.30
59272;BME280;45043;51.068;7.026;2023-09-19T03:44:30;99926.28;;;12.11;59.73
59272;BME280;45043;51.068;7.026;2023-09-19T03:47:31;99924.66;;;12.10;59.70
59272;BME280;45043;51.068;7.026;2023-09-19T03:50:35;99915.03;;;12.09;59.77
59272;BME280;45043;51.068;7.026;2023-09-19T03:53:36;99921.63;;;12.07;60.15
59272;BME280;45043;51.068;7.026;2023-09-19T03:56:37;99919.75;;;12.07;60.06
59272;BME280;45043;51.068;7.026;2023-09-19T03:59:38;99916.06;;;12.08;60.61
59272;BME280;45043;51.068;7.026;2023-09-19T04:02:39;99913.19;;;12.10;60.64
59272;BME280;45043;51.068;7.026;2023-09-19T04:05:42;99920.13;;;12.11;60.54
59272;BME280;45043;51.068;7.026;2023-09-19T04:08:43;99915.47;;;12.06;60.53
59272;BME280;45043;51.068;7.026;2023-09-19T04:11:46;99910.72;;;12.08;60.73
59272;BME280;45043;51.068;7.026;2023-09-19T04:14:47;99911.53;;;12.09;60.77
59272;BME280;45043;51.068;7.026;2023-09-19T04:17:49;99915.47;;;12.06;60.81
59272;BME280;45043;51.068;7.026;2023-09-19T04:20:50;99926.13;;;12.06;61.25
59272;BME280;45043;51.068;7.026;2023-09-19T04:23:51;99915.69;;;12.05;61.33
59272;BME280;45043;51.068;7.026;2023-09-19T04:26:52;99914.88;;;12.04;61.59
59272;BME280;45043;51.068;7.026;2023-09-19T04:29:53;99924.13;;;12.20;61.98
59272;BME280;45043;51.068;7.026;2023-09-19T04:32:54;99914.91;;;12.41;61.83
59272;BME280;45043;51.068;7.026;2023-09-19T04:35:55;99926.66;;;12.52;61.56
59272;BME280;45043;51.068;7.026;2023-09-19T04:38:57;99928.34;;;12.64;61.11
59272;BME280;45043;51.068;7.026;2023-09-19T04:41:58;99923.56;;;12.73;60.69
59272;BME280;45043;51.068;7.026;2023-09-19T04:45:00;99932.97;;;12.76;60.14
59272;BME280;45043;51.068;7.026;2023-09-19T04:48:01;99941.94;;;12.81;59.95
59272;BME280;45043;51.068;7.026;2023-09-19T04:51:03;99942.75;;;12.82;59.87
59272;BME280;45043;51.068;7.026;2023-09-19T04:54:04;99939.50;;;12.80;59.67
59272;BME280;45043;51.068;7.026;2023-09-19T04:57:05;99946.22;;;12.82;59.35
59272;BME280;45043;51.068;7.026;2023-09-19T05:00:07;99941.75;;;12.95;59.70
59272;BME280;45043;51.068;7.026;2023-09-19T05:03:13;99946.56;;;13.04;59.00
59272;BME280;45043;51.068;7.026;2023-09-19T05:06:14;99953.50;;;13.05;58.79
59272;BME280;45043;51.068;7.026;2023-09-19T05:09:14;99949.34;;;13.09;58.89
59272;BME280;45043;51.068;7.026;2023-09-19T05:12:16;99945.78;;;13.16;57.90
59272;BME280;45043;51.068;7.026;2023-09-19T05:15:20;99948.44;;;13.16;57.86
59272;BME280;45043;51.068;7.026;2023-09-19T05:18:22;99958.53;;;13.13;57.65
59272;BME280;45043;51.068;7.026;2023-09-19T05:21:23;99958.38;;;13.08;57.62
59272;BME280;45043;51.068;7.026;2023-09-19T05:24:24;99965.81;;;13.06;57.30
59272;BME280;45043;51.068;7.026;2023-09-19T05:27:27;99974.47;;;13.02;57.39
59272;BME280;45043;51.068;7.026;2023-09-19T05:30:28;99977.00;;;12.97;57.53
59272;BME280;45043;51.068;7.026;2023-09-19T05:33:30;99988.13;;;12.94;57.30
59272;BME280;45043;51.068;7.026;2023-09-19T05:36:32;99987.06;;;12.95;57.21
59272;BME280;45043;51.068;7.026;2023-09-19T05:39:34;99986.41;;;12.99;57.18
59272;BME280;45043;51.068;7.026;2023-09-19T05:42:35;100002.78;;;13.03;56.80
59272;BME280;45043;51.068;7.026;2023-09-19T05:45:35;99999.44;;;13.07;57.01
59272;BME280;45043;51.068;7.026;2023-09-19T05:48:38;99999.56;;;13.12;56.88
59272;BME280;45043;51.068;7.026;2023-09-19T05:51:42;100003.88;;;13.13;56.69
59272;BME280;45043;51.068;7.026;2023-09-19T05:54:43;100004.47;;;13.16;56.50
59272;BME280;45043;51.068;7.026;2023-09-19T05:57:49;100012.47;;;13.16;56.29
59272;BME280;45043;51.068;7.026;2023-09-19T06:00:51;100012.69;;;13.14;56.11
59272;BME280;45043;51.068;7.026;2023-09-19T06:03:53;100017.78;;;13.16;56.07
59272;BME280;45043;51.068;7.026;2023-09-19T06:06:54;100027.66;;;13.15;55.91
59272;BME280;45043;51.068;7.026;2023-09-19T06:09:56;100029.72;;;13.13;55.99
59272;BME280;45043;51.068;7.026;2023-09-19T06:12:56;100043.28;;;13.11;56.21
59272;BME280;45043;51.068;7.026;2023-09-19T06:15:58;100039.19;;;13.09;56.02
59272;BME280;45043;51.068;7.026;2023-09-19T06:18:59;100045.94;;;13.11;55.92
59272;BME280;45043;51.068;7.026;2023-09-19T06:22:01;100056.84;;;13.10;55.75
59272;BME280;45043;51.068;7.026;2023-09-19T06:25:02;100060.53;;;13.09;55.74
59272;BME280;45043;51.068;7.026;2023-09-19T06:28:03;100061.59;;;13.08;55.91
59272;BME280;45043;51.068;7.026;2023-09-19T06:31:06;100050.09;;;13.07;55.43
59272;BME280;45043;51.068;7.026;2023-09-19T06:34:10;100051.72;;;13.08;55.67
59272;BME280;45043;51.068;7.026;2023-09-19T06:37:11;100049.66;;;13.10;55.85
59272;BME280;45043;51.068;7.026;2023-09-19T06:40:13;100053.94;;;13.11;55.88
59272;BME280;45043;51.068;7.026;2023-09-19T06:43:14;100060.91;;;13.12;55.86
59272;BME280;45043;51.068;7.026;2023-09-19T06:46:15;100057.22;;;13.13;55.76
59272;BME280;45043;51.068;7.026;2023-09-19T06:49:17;100051.56;;;13.22;55.35
59272;BME280;45043;51.068;7.026;2023-09-19T06:52:17;100043.56;;;13.22;55.72
59272;BME280;45043;51.068;7.026;2023-09-19T06:55:21;100045.50;;;13.33;55.20
59272;BME280;45043;51.068;7.026;2023-09-19T06:58:25;100050.75;;;13.40;55.19
59272;BME280;45043;51.068;7.026;2023-09-19T07:01:26;100049.63;;;13.47;55.01
59272;BME280;45043;51.068;7.026;2023-09-19T07:04:26;100061.31;;;13.46;54.65
59272;BME280;45043;51.068;7.026;2023-09-19T07:07:27;100038.78;;;13.42;54.72
59272;BME280;45043;51.068;7.026;2023-09-19T07:10:30;100058.50;;;13.41;54.62
59272;BME280;45043;51.068;7.026;2023-09-19T07:13:31;100050.44;;;13.48;54.46
59272;BME280;45043;51.068;7.026;2023-09-19T07:16:37;100067.28;;;13.60;54.24
59272;BME280;45043;51.068;7.026;2023-09-19T07:19:40;100061.59;;;13.56;54.41
59272;BME280;45043;51.068;7.026;2023-09-19T07:22:41;100068.53;;;13.57;54.20
59272;BME280;45043;51.068;7.026;2023-09-19T07:25:42;100066.56;;;13.53;54.09
59272;BME280;45043;51.068;7.026;2023-09-19T07:28:43;100065.22;;;13.62;54.13
59272;BME280;45043;51.068;7.026;2023-09-19T07:31:43;100076.25;;;13.66;53.61
59272;BME280;45043;51.068;7.026;2023-09-19T07:34:44;100072.41;;;13.61;53.75
59272;BME280;45043;51.068;7.026;2023-09-19T07:37:46;100077.28;;;13.65;53.91
59272;BME280;45043;51.068;7.026;2023-09-19T07:40:50;100068.81;;;13.68;53.72
59272;BME280;45043;51.068;7.026;2023-09-19T07:43:51;100075.44;;;13.65;53.62
59272;BME280;45043;51.068;7.026;2023-09-19T07:46:52;100084.13;;;13.60;54.05
59272;BME280;45043;51.068;7.026;2023-09-19T07:49:54;100092.00;;;13.55;53.79
59272;BME280;45043;51.068;7.026;2023-09-19T07:52:55;100074.50;;;13.59;53.83
59272;BME280;45043;51.068;7.026;2023-09-19T07:59:04;100089.81;;;13.64;53.84
59272;BME280;45043;51.068;7.026;2023-09-19T08:02:05;100082.78;;;13.70;53.95
59272;BME280;45043;51.068;7.026;2023-09-19T08:05:07;100095.81;;;13.78;53.43
59272;BME280;45043;51.068;7.026;2023-09-19T08:08:10;100088.19;;;13.81;53.34
59272;BME280;45043;51.068;7.026;2023-09-19T08:11:14;100092.97;;;13.91;53.05
59272;BME280;45043;51.068;7.026;2023-09-19T08:14:19;100083.22;;;13.97;52.44
59272;BME280;45043;51.068;7.026;2023-09-19T08:17:20;100095.53;;;13.98;52.86
59272;BME280;45043;51.068;7.026;2023-09-19T08:20:23;100096.34;;;13.98;52.39
59272;BME280;45043;51.068;7.026;2023-09-19T08:23:24;100106.94;;;14.05;52.74
59272;BME280;45043;51.068;7.026;2023-09-19T08:26:27;100090.81;;;14.12;52.70
59272;BME280;45043;51.068;7.026;2023-09-19T08:29:28;100103.81;;;14.20;52.61
59272;BME280;45043;51.068;7.026;2023-09-19T08:32:30;100093.84;;;14.27;52.18
59272;BME280;45043;51.068;7.026;2023-09-19T08:35:31;100095.47;;;14.28;51.95
59272;BME280;45043;51.068;7.026;2023-09-19T08:38:33;100088.88;;;14.30;52.26
59272;BME280;45043;51.068;7.026;2023-09-19T08:41:35;100102.94;;;14.38;52.24
59272;BME280;45043;51.068;7.026;2023-09-19T08:44:37;100104.00;;;14.48;52.06
59272;BME280;45043;51.068;7.026;2023-09-19T08:48:00;100102.13;;;14.49;50.94
59272;BME280;45043;51.068;7.026;2023-09-19T08:51:06;100108.38;;;14.43;51.08
59272;BME280;45043;51.068;7.026;2023-09-19T08:54:08;100115.03;;;14.40;51.35
59272;BME280;45043;51.068;7.026;2023-09-19T08:57:11;100112.00;;;14.48;51.22
59272;BME280;45043;51.068;7.026;2023-09-19T09:00:13;100111.81;;;14.62;50.69
59272;BME280;45043;51.068;7.026;2023-09-19T09:03:16;100101.84;;;14.80;50.35
59272;BME280;45043;51.068;7.026;2023-09-19T09:06:20;100095.75;;;14.97;49.88
59272;BME280;45043;51.068;7.026;2023-09-19T09:09:22;100108.41;;;15.01;49.09
59272;BME280;45043;51.068;7.026;2023-09-19T09:12:23;100099.59;;;15.01;49.03
59272;BME280;45043;51.068;7.026;2023-09-19T09:15:25;100090.63;;;15.07;48.70
59272;BME280;45043;51.068;7.026;2023-09-19T09:18:25;100100.63;;;15.12;48.04
59272;BME280;45043;51.068;7.026;2023-09-19T09:21:27;100118.28;;;15.13;47.72
59272;BME280;45043;51.068;7.026;2023-09-19T09:24:32;100118.03;;;15.26;47.72
59272;BME280;45043;51.068;7.026;2023-09-19T09:27:40;100095.50;;;15.22;47.01
59272;BME280;45043;51.068;7.026;2023-09-19T09:30:40;100090.47;;;15.25;47.10
59272;BME280;45043;51.068;7.026;2023-09-19T09:33:53;100101.06;;;15.32;46.94
59272;BME280;45043;51.068;7.026;2023-09-19T09:36:55;100067.88;;;15.33;46.28
59272;BME280;45043;51.068;7.026;2023-09-19T09:40:01;100103.72;;;15.32;45.88
59272;BME280;45043;51.068;7.026;2023-09-19T09:43:35;100086.63;;;15.33;45.49
59272;BME280;45043;51.068;7.026;2023-09-19T09:46:47;100077.88;;;15.38;45.28
59272;BME280;45043;51.068;7.026;2023-09-19T09:49:55;100077.16;;;15.42;45.31
59272;BME280;45043;51.068;7.026;2023-09-19T09:53:23;100090.75;;;15.52;45.32
59272;BME280;45043;51.068;7.026;2023-09-19T09:56:31;100082.00;;;15.57;44.58
59272;BME280;45043;51.068;7.026;2023-09-19T09:59:48;100105.28;;;15.57;43.67
59272;BME280;45043;51.068;7.026;2023-09-19T10:02:54;100106.78;;;15.64;44.16
59272;BME280;45043;51.068;7.026;2023-09-19T10:05:54;100100.06;;;15.62;44.17
59272;BME280;45043;51.068;7.026;2023-09-19T10:09:02;100087.69;;;15.61;44.04
59272;BME280;45043;51.068;7.026;2023-09-19T10:12:14;100070.34;;;15.63;43.88
59272;BME280;45043;51.068;7.026;2023-09-19T10:15:18;100096.78;;;15.60;43.57
59272;BME280;45043;51.068;7.026;2023-09-19T10:18:24;100082.13;;;15.50;43.56
59272;BME280;45043;51.068;7.026;2023-09-19T10:21:26;100075.84;;;15.57;43.71
59272;BME280;45043;51.068;7.026;2023-09-19T10:24:30;100081.31;;;15.62;43.13
59272;BME280;45043;51.068;7.026;2023-09-19T10:27:35;100083.75;;;15.63;43.33
59272;BME280;45043;51.068;7.026;2023-09-19T10:30:41;100069.41;;;15.69;43.03
59272;BME280;45043;51.068;7.026;2023-09-19T10:33:44;100072.41;;;15.73;42.98
59272;BME280;45043;51.068;7.026;2023-09-19T10:36:47;100070.63;;;15.78;43.24
59272;BME280;45043;51.068;7.026;2023-09-19T10:39:48;100042.97;;;15.73;43.02
59272;BME280;45043;51.068;7.026;2023-09-19T10:42:50;100063.78;;;15.71;43.41
59272;BME280;45043;51.068;7.026;2023-09-19T10:45:51;100054.31;;;15.80;43.59
59272;BME280;45043;51.068;7.026;2023-09-19T10:48:59;100040.88;;;15.92;43.72
59272;BME280;45043;51.068;7.026;2023-09-19T10:52:01;100072.03;;;15.98;43.54
59272;BME280;45043;51.068;7.026;2023-09-19T10:55:03;100056.75;;;15.98;43.32
59272;BME280;45043;51.068;7.026;2023-09-19T10:58:05;100049.63;;;16.04;43.49
59272;BME280;45043;51.068;7.026;2023-09-19T11:01:16;100052.63;;;16.08;42.78
59272;BME280;45043;51.068;7.026;2023-09-19T11:04:31;100055.00;;;16.04;42.20
59272;BME280;45043;51.068;7.026;2023-09-19T11:07:58;100055.31;;;16.08;42.21
59272;BME280;45043;51.068;7.026;2023-09-19T11:14:41;100054.81;;;16.27;41.95
59272;BME280;45043;51.068;7.026;2023-09-19T11:17:42;100060.66;;;16.24;41.71
59272;BME280;45043;51.068;7.026;2023-09-19T11:20:47;100066.91;;;16.13;41.62
59272;BME280;45043;51.068;7.026;2023-09-19T11:27:12;100037.94;;;16.10;42.03
59272;BME280;45043;51.068;7.026;2023-09-19T11:30:27;100048.91;;;16.09;42.31
59272;BME280;45043;51.068;7.026;2023-09-19T11:33:31;100060.69;;;16.08;42.81
59272;BME280;45043;51.068;7.026;2023-09-19T11:36:37;100061.47;;;16.08;42.11
59272;BME280;45043;51.068;7.026;2023-09-19T11:39:38;100039.25;;;16.08;42.04
59272;BME280;45043;51.068;7.026;2023-09-19T11:49:08;100049.81;;;16.14;42.72
59272;BME280;45043;51.068;7.026;2023-09-19T11:52:11;100068.88;;;16.18;42.74
59272;BME280;45043;51.068;7.026;2023-09-19T11:55:25;100055.06;;;16.26;42.71
59272;BME280;45043;51.068;7.026;2023-09-19T11:58:26;100052.41;;;16.26;43.16
59272;BME280;45043;51.068;7.026;2023-09-19T12:01:33;100071.22;;;16.31;42.99
59272;BME280;45043;51.068;7.026;2023-09-19T12:04:43;100061.59;;;16.47;43.06
59272;BME280;45043;51.068;7.026;2023-09-19T12:07:45;100049.91;;;16.75;42.49
59272;BME280;45043;51.068;7.026;2023-09-19T12:10:49;100052.47;;;16.87;41.01
59272;BME280;45043;51.068;7.026;2023-09-19T12:13:52;100045.03;;;16.72;40.97
59272;BME280;45043;51.068;7.026;2023-09-19T12:16:54;100053.56;;;16.69;41.65
59272;BME280;45043;51.068;7.026;2023-09-19T12:19:56;100050.44;;;16.55;41.06
59272;BME280;45043;51.068;7.026;2023-09-19T12:22:57;100048.78;;;16.71;40.83
59272;BME280;45043;51.068;7.026;2023-09-19T12:26:01;100044.50;;;16.92;39.00
59272;BME280;45043;51.068;7.026;2023-09-19T12:29:17;100025.91;;;17.07;39.22
59272;BME280;45043;51.068;7.026;2023-09-19T12:32:35;100000.38;;;17.27;38.88
59272;BME280;45043;51.068;7.026;2023-09-19T12:35:36;100047.91;;;17.53;38.18
59272;BME280;45043;51.068;7.026;2023-09-19T12:38:47;100020.91;;;17.65;38.01
59272;BME280;45043;51.068;7.026;2023-09-19T12:41:49;100022.44;;;17.56;36.78
59272;BME280;45043;51.068;7.026;2023-09-19T12:44:52;100020.28;;;17.58;36.66
59272;BME280;45043;51.068;7.026;2023-09-19T12:48:19;100018.28;;;17.70;35.89
59272;BME280;45043;51.068;7.026;2023-09-19T12:51:35;100022.09;;;17.79;35.20
59272;BME280;45043;51.068;7.026;2023-09-19T12:54:39;100006.06;;;17.89;35.34
59272;BME280;45043;51.068;7.026;2023-09-19T12:57:40;100008.59;;;17.96;35.40
59272;BME280;45043;51.068;7.026;2023-09-19T13:00:43;100018.00;;;17.99;35.97
59272;BME280;45043;51.068;7.026;2023-09-19T13:07:40;99991.78;;;18.63;35.20
59272;BME280;45043;51.068;7.026;2023-09-19T13:11:07;100011.94;;;18.61;35.05
59272;BME280;45043;51.068;7.026;2023-09-19T13:14:15;99994.53;;;18.69;35.18
59272;BME280;45043;51.068;7.026;2023-09-19T13:17:16;99987.22;;;18.59;34.69
59272;BME280;45043;51.068;7.026;2023-09-19T13:20:24;99983.56;;;18.85;34.58
59272;BME280;45043;51.068;7.026;2023-09-19T13:23:30;100005.16;;;18.96;34.56
59272;BME280;45043;51.068;7.026;2023-09-19T13:26:31;100003.00;;;18.98;33.79
59272;BME280;45043;51.068;7.026;2023-09-19T13:29:33;99975.00;;;18.94;33.94
59272;BME280;45043;51.068;7.026;2023-09-19T13:32:34;100009.88;;;18.68;34.29
59272;BME280;45043;51.068;7.026;2023-09-19T13:35:35;99988.22;;;18.48;34.52
59272;BME280;45043;51.068;7.026;2023-09-19T13:38:37;100009.53;;;18.59;34.14
59272;BME280;45043;51.068;7.026;2023-09-19T13:41:38;100013.13;;;18.80;34.52
59272;BME280;45043;51.068;7.026;2023-09-19T13:44:39;99987.63;;;18.88;34.29
59272;BME280;45043;51.068;7.026;2023-09-19T13:47:41;100003.00;;;19.03;33.91
59272;BME280;45043;51.068;7.026;2023-09-19T13:50:42;99978.91;;;19.44;33.57
59272;BME280;45043;51.068;7.026;2023-09-19T13:53:43;99980.53;;;19.55;33.80
59272;BME280;45043;51.068;7.026;2023-09-19T13:56:45;99984.84;;;19.41;34.06
59272;BME280;45043;51.068;7.026;2023-09-19T13:59:46;99981.63;;;19.44;33.71
59272;BME280;45043;51.068;7.026;2023-09-19T14:02:48;100000.66;;;19.22;33.99
59272;BME280;45043;51.068;7.026;2023-09-19T14:05:49;100000.81;;;18.89;34.70
59272;BME280;45043;51.068;7.026;2023-09-19T14:08:51;100016.97;;;18.84;34.82
59272;BME280;45043;51.068;7.026;2023-09-19T14:11:52;100003.88;;;18.61;35.16
59272;BME280;45043;51.068;7.026;2023-09-19T14:14:55;99993.75;;;18.26;36.13
59272;BME280;45043;51.068;7.026;2023-09-19T14:17:57;99982.75;;;17.95;36.76
59272;BME280;45043;51.068;7.026;2023-09-19T14:21:04;99991.13;;;17.71;37.17
59272;BME280;45043;51.068;7.026;2023-09-19T14:24:05;99994.19;;;17.53;37.71
59272;BME280;45043;51.068;7.026;2023-09-19T14:27:09;99991.09;;;17.39;37.73
59272;BME280;45043;51.068;7.026;2023-09-19T14:30:11;99994.75;;;17.28;37.96
59272;BME280;45043;51.068;7.026;2023-09-19T14:33:12;99997.66;;;17.21;38.32
59272;BME280;45043;51.068;7.026;2023-09-19T14:36:16;99992.47;;;17.15;38.63
59272;BME280;45043;51.068;7.026;2023-09-19T14:39:18;100004.19;;;17.09;38.82
59272;BME280;45043;51.068;7.026;2023-09-19T14:42:21;100017.91;;;17.12;39.08
59272;BME280;45043;51.068;7.026;2023-09-19T14:45:22;100004.81;;;17.16;39.29
59272;BME280;45043;51.068;7.026;2023-09-19T14:48:23;99985.56;;;17.78;38.53
59272;BME280;45043;51.068;7.026;2023-09-19T14:51:30;99994.72;;;17.82;38.57
59272;BME280;45043;51.068;7.026;2023-09-19T14:54:32;99998.50;;;17.81;37.97
59272;BME280;45043;51.068;7.026;2023-09-19T14:57:33;99990.16;;;17.83;38.46
59272;BME280;45043;51.068;7.026;2023-09-19T15:00:34;100001.41;;;18.49;37.63
59272;BME280;45043;51.068;7.026;2023-09-19T15:03:38;99996.19;;;18.32;37.20
59272;BME280;45043;51.068;7.026;2023-09-19T15:06:43;100002.31;;;17.90;37.83
59272;BME280;45043;51.068;7.026;2023-09-19T15:09:43;99991.84;;;17.62;39.16
59272;BME280;45043;51.068;7.026;2023-09-19T15:12:44;100010.66;;;17.35;39.29
59272;BME280;45043;51.068;7.026;2023-09-19T15:15:45;100010.13;;;17.11;40.13
59272;BME280;45043;51.068;7.026;2023-09-19T15:18:49;100015.84;;;16.97;40.32
59272;BME280;45043;51.068;7.026;2023-09-19T15:21:50;100007.63;;;16.82;39.99
59272;BME280;45043;51.068;7.026;2023-09-19T15:24:51;99993.84;;;16.73;40.98
59272;BME280;45043;51.068;7.026;2023-09-19T15:27:52;99996.75;;;16.72;40.76
59272;BME280;45043;51.068;7.026;2023-09-19T15:31:03;99995.72;;;16.73;40.92
59272;BME280;45043;51.068;7.026;2023-09-19T15:34:05;99986.28;;;16.70;41.29
59272;BME280;45043;51.068;7.026;2023-09-19T15:37:09;99996.13;;;16.65;40.91
59272;BME280;45043;51.068;7.026;2023-09-19T15:40:10;99986.91;;;16.56;41.24
59272;BME280;45043;51.068;7.026;2023-09-19T15:43:14;99994.56;;;16.47;41.36
59272;BME280;45043;51.068;7.026;2023-09-19T15:46:15;99998.47;;;16.39;41.41
59272;BME280;45043;51.068;7.026;2023-09-19T15:49:21;99991.16;;;16.35;41.14
59272;BME280;45043;51.068;7.026;2023-09-19T15:52:23;99995.72;;;16.34;41.59
59272;BME280;45043;51.068;7.026;2023-09-19T15:55:27;99987.59;;;16.29;41.78
59272;BME280;45043;51.068;7.026;2023-09-19T15:58:27;99986.53;;;16.30;41.42
59272;BME280;45043;51.068;7.026;2023-09-19T16:01:28;99972.31;;;16.30;41.70
59272;BME280;45043;51.068;7.026;2023-09-19T16:04:29;99985.44;;;16.31;41.63
59272;BME280;45043;51.068;7.026;2023-09-19T16:07:31;99981.25;;;16.35;41.94
59272;BME280;45043;51.068;7.026;2023-09-19T16:10:35;99982.91;;;16.36;42.08
59272;BME280;45043;51.068;7.026;2023-09-19T16:13:38;99988.25;;;16.36;41.52
59272;BME280;45043;51.068;7.026;2023-09-19T16:16:41;99990.59;;;16.33;41.52
59272;BME280;45043;51.068;7.026;2023-09-19T16:19:42;99970.53;;;16.35;41.99
59272;BME280;45043;51.068;7.026;2023-09-19T16:22:45;99971.59;;;16.34;41.72
59272;BME280;45043;51.068;7.026;2023-09-19T16:25:47;99972.66;;;16.33;41.50
59272;BME280;45043;51.068;7.026;2023-09-19T16:28:50;99984.66;;;16.31;41.42
59272;BME280;45043;51.068;7.026;2023-09-19T16:31:52;99993.50;;;16.31;41.58
59272;BME280;45043;51.068;7.026;2023-09-19T16:34:53;99988.75;;;16.33;41.72
59272;BME280;45043;51.068;7.026;2023-09-19T16:37:54;99986.75;;;16.45;41.71
59272;BME280;45043;51.068;7.026;2023-09-19T16:40:56;99993.09;;;17.00;40.47